SAS1000 ESGG-ENGM
Flight info
| Callsign | SAS1000 |
|---|---|
| Flight time | 0h 45m |
| Altitude | 24000 |
| Route | SABAK L997 XENTA DCT REGMA DCT LUNIP |
| Aircraft | A320/M-SDE3FGHIRWY/LB1 |
Departure
| Time | 2026-05-05 19:32 |
|---|---|
| Airport | Göteborg Landvetter Airport (ESGG) |
Arrival
| Time | 2026-05-05 20:17 |
|---|---|
| Airport | Oslo-Gardermoen International Airport (ENGM) |
| Time | Latitude | Longitude | Altitude | Speed | Heading |
|---|---|---|---|---|---|
| 2026-05-05 18:55 | 57.66849 | 12.29374 | 516 ft | 0 kts | 116° |
| 2026-05-05 19:20 | 57.66850 | 12.29369 | 516 ft | 2 kts | 115° |
| 2026-05-05 19:20 | 57.66856 | 12.29341 | 516 ft | 2 kts | 113° |
| 2026-05-05 19:21 | 57.66861 | 12.29312 | 516 ft | 2 kts | 102° |
| 2026-05-05 19:21 | 57.66864 | 12.29281 | 516 ft | 2 kts | 83° |
| 2026-05-05 19:21 | 57.66860 | 12.29252 | 516 ft | 2 kts | 49° |
| 2026-05-05 19:21 | 57.66849 | 12.29233 | 516 ft | 1 kts | 27° |
| 2026-05-05 19:22 | 57.66846 | 12.29231 | 516 ft | 0 kts | 26° |
| 2026-05-05 19:26 | 57.66857 | 12.29241 | 516 ft | 4 kts | 26° |
| 2026-05-05 19:26 | 57.66902 | 12.29281 | 516 ft | 10 kts | 26° |
| 2026-05-05 19:26 | 57.66965 | 12.29334 | 516 ft | 7 kts | 4° |
| 2026-05-05 19:27 | 57.67002 | 12.29232 | 516 ft | 12 kts | 297° |
| 2026-05-05 19:27 | 57.67085 | 12.29223 | 516 ft | 16 kts | 26° |
| 2026-05-05 19:27 | 57.67202 | 12.29329 | 516 ft | 21 kts | 26° |
| 2026-05-05 19:27 | 57.67318 | 12.29435 | 516 ft | 18 kts | 26° |
| 2026-05-05 19:28 | 57.67412 | 12.29459 | 516 ft | 15 kts | 314° |
| 2026-05-05 19:28 | 57.67460 | 12.29286 | 515 ft | 10 kts | 289° |
| 2026-05-05 19:28 | 57.67461 | 12.29249 | 515 ft | 0 kts | 265° |
| 2026-05-05 19:30 | 57.67460 | 12.29235 | 515 ft | 4 kts | 265° |
| 2026-05-05 19:30 | 57.67456 | 12.29140 | 514 ft | 11 kts | 266° |
| 2026-05-05 19:30 | 57.67421 | 12.29016 | 516 ft | 11 kts | 216° |
| 2026-05-05 19:31 | 57.67392 | 12.28988 | 515 ft | 10 kts | 206° |
| 2026-05-05 19:31 | 57.67103 | 12.28726 | 514 ft | 81 kts | 206° |
| 2026-05-05 19:31 | 57.66420 | 12.28106 | 511 ft | 135 kts | 206° |
| 2026-05-05 19:31 | 57.65452 | 12.27229 | 650 ft | 164 kts | 207° |
| 2026-05-05 19:32 | 57.64379 | 12.26271 | 1031 ft | 181 kts | 207° |
| 2026-05-05 19:32 | 57.63176 | 12.25176 | 1318 ft | 204 kts | 207° |
| 2026-05-05 19:32 | 57.61833 | 12.23949 | 1631 ft | 227 kts | 207° |
| 2026-05-05 19:32 | 57.60339 | 12.22586 | 2124 ft | 248 kts | 207° |
| 2026-05-05 19:33 | 57.58792 | 12.21182 | 3100 ft | 248 kts | 207° |
| 2026-05-05 19:33 | 57.57370 | 12.19403 | 4017 ft | 247 kts | 230° |
| 2026-05-05 19:33 | 57.56568 | 12.16618 | 4945 ft | 246 kts | 257° |
| 2026-05-05 19:33 | 57.56231 | 12.13483 | 5910 ft | 247 kts | 260° |
| 2026-05-05 19:34 | 57.55908 | 12.10341 | 6857 ft | 246 kts | 260° |
| 2026-05-05 19:34 | 57.55590 | 12.07269 | 7937 ft | 239 kts | 260° |
| 2026-05-05 19:34 | 57.55275 | 12.04237 | 8889 ft | 238 kts | 260° |
| 2026-05-05 19:35 | 57.54695 | 11.98155 | 10613 ft | 239 kts | 269° |
| 2026-05-05 19:35 | 57.54907 | 11.95127 | 11410 ft | 240 kts | 284° |
| 2026-05-05 19:35 | 57.55562 | 11.92266 | 12232 ft | 242 kts | 296° |
| 2026-05-05 19:35 | 57.56572 | 11.89712 | 13039 ft | 248 kts | 307° |
| 2026-05-05 19:36 | 57.57913 | 11.87620 | 13819 ft | 257 kts | 320° |
| 2026-05-05 19:36 | 57.59507 | 11.86014 | 14475 ft | 262 kts | 324° |
| 2026-05-05 19:36 | 57.61166 | 11.84540 | 15112 ft | 269 kts | 330° |
| 2026-05-05 19:36 | 57.62988 | 11.83498 | 15742 ft | 279 kts | 339° |
| 2026-05-05 19:37 | 57.64914 | 11.82830 | 16411 ft | 283 kts | 340° |
| 2026-05-05 19:37 | 57.66857 | 11.82166 | 17076 ft | 285 kts | 340° |
| 2026-05-05 19:37 | 57.68813 | 11.81488 | 17712 ft | 287 kts | 339° |
| 2026-05-05 19:37 | 57.70787 | 11.80801 | 18321 ft | 290 kts | 339° |
| 2026-05-05 19:38 | 57.72777 | 11.80106 | 18860 ft | 292 kts | 339° |
| 2026-05-05 19:38 | 57.74760 | 11.79406 | 19379 ft | 295 kts | 339° |
| 2026-05-05 19:38 | 57.76810 | 11.78685 | 19911 ft | 298 kts | 339° |
| 2026-05-05 19:38 | 57.78834 | 11.77979 | 20426 ft | 301 kts | 339° |
| 2026-05-05 19:39 | 57.80899 | 11.77256 | 20929 ft | 304 kts | 339° |
| 2026-05-05 19:39 | 57.82987 | 11.76525 | 21428 ft | 306 kts | 339° |
| 2026-05-05 19:39 | 57.85090 | 11.75788 | 21911 ft | 309 kts | 339° |
| 2026-05-05 19:39 | 57.87216 | 11.75040 | 22411 ft | 312 kts | 338° |
| 2026-05-05 19:40 | 57.89360 | 11.74284 | 22884 ft | 314 kts | 338° |
| 2026-05-05 19:40 | 57.91523 | 11.73522 | 23365 ft | 317 kts | 338° |
| 2026-05-05 19:40 | 57.93700 | 11.72750 | 23834 ft | 320 kts | 338° |
| 2026-05-05 19:40 | 57.95901 | 11.71973 | 23955 ft | 321 kts | 338° |
| 2026-05-05 19:41 | 57.98093 | 11.71211 | 23966 ft | 320 kts | 338° |
| 2026-05-05 19:41 | 58.00287 | 11.70441 | 23971 ft | 320 kts | 338° |
| 2026-05-05 19:41 | 58.02478 | 11.69671 | 23964 ft | 320 kts | 338° |
| 2026-05-05 19:41 | 58.04632 | 11.68912 | 23962 ft | 320 kts | 338° |
| 2026-05-05 19:42 | 58.06823 | 11.68139 | 23963 ft | 320 kts | 338° |
| 2026-05-05 19:42 | 58.09012 | 11.67366 | 23962 ft | 320 kts | 338° |
| 2026-05-05 19:42 | 58.11200 | 11.66591 | 23965 ft | 320 kts | 338° |
| 2026-05-05 19:42 | 58.13384 | 11.65811 | 23965 ft | 320 kts | 338° |
| 2026-05-05 19:43 | 58.15573 | 11.65024 | 23966 ft | 320 kts | 338° |
| 2026-05-05 19:43 | 58.17760 | 11.64239 | 23964 ft | 320 kts | 338° |
| 2026-05-05 19:43 | 58.19957 | 11.63501 | 23963 ft | 321 kts | 339° |
| 2026-05-05 19:43 | 58.22171 | 11.62815 | 23967 ft | 322 kts | 340° |
| 2026-05-05 19:44 | 58.24392 | 11.62155 | 23964 ft | 323 kts | 340° |
| 2026-05-05 19:44 | 58.26610 | 11.61498 | 23966 ft | 323 kts | 340° |
| 2026-05-05 19:44 | 58.28808 | 11.60842 | 23966 ft | 323 kts | 340° |
| 2026-05-05 19:44 | 58.31028 | 11.60170 | 23969 ft | 323 kts | 339° |
| 2026-05-05 19:45 | 58.33246 | 11.59485 | 23971 ft | 323 kts | 339° |
| 2026-05-05 19:45 | 58.35460 | 11.58795 | 23972 ft | 323 kts | 339° |
| 2026-05-05 19:45 | 58.37682 | 11.58105 | 23973 ft | 323 kts | 339° |
| 2026-05-05 19:45 | 58.39902 | 11.57411 | 23974 ft | 323 kts | 339° |
| 2026-05-05 19:46 | 58.42116 | 11.56721 | 23977 ft | 323 kts | 339° |
| 2026-05-05 19:46 | 58.44333 | 11.56034 | 23976 ft | 323 kts | 339° |
| 2026-05-05 19:46 | 58.46549 | 11.55351 | 23977 ft | 323 kts | 340° |
| 2026-05-05 19:46 | 58.48767 | 11.54666 | 23975 ft | 322 kts | 339° |
| 2026-05-05 19:47 | 58.50982 | 11.53977 | 23990 ft | 322 kts | 339° |
| 2026-05-05 19:47 | 58.53191 | 11.53290 | 23978 ft | 321 kts | 339° |
| 2026-05-05 19:47 | 58.55388 | 11.52610 | 23971 ft | 319 kts | 339° |
| 2026-05-05 19:47 | 58.57579 | 11.51928 | 23967 ft | 319 kts | 339° |
| 2026-05-05 19:48 | 58.59764 | 11.51244 | 23969 ft | 319 kts | 339° |
| 2026-05-05 19:48 | 58.61928 | 11.50562 | 23970 ft | 319 kts | 339° |
| 2026-05-05 19:48 | 58.64127 | 11.49864 | 23967 ft | 320 kts | 339° |
| 2026-05-05 19:48 | 58.66326 | 11.49168 | 23968 ft | 320 kts | 339° |
| 2026-05-05 19:49 | 58.68527 | 11.48474 | 23966 ft | 319 kts | 339° |
| 2026-05-05 19:49 | 58.69963 | 11.48028 | 23956 ft | 312 kts | 339° |
| 2026-05-05 19:49 | 58.72799 | 11.47150 | 23956 ft | 307 kts | 339° |
| 2026-05-05 19:49 | 58.74898 | 11.46485 | 23831 ft | 304 kts | 338° |
| 2026-05-05 19:50 | 58.76985 | 11.45819 | 23511 ft | 303 kts | 338° |
| 2026-05-05 19:50 | 58.79034 | 11.45161 | 23150 ft | 301 kts | 338° |
| 2026-05-05 19:50 | 58.81094 | 11.44509 | 22862 ft | 299 kts | 339° |
| 2026-05-05 19:50 | 58.83144 | 11.43864 | 22548 ft | 297 kts | 338° |
| 2026-05-05 19:51 | 58.85174 | 11.43223 | 22241 ft | 295 kts | 338° |
| 2026-05-05 19:51 | 58.87191 | 11.42583 | 21931 ft | 293 kts | 338° |
| 2026-05-05 19:51 | 58.89192 | 11.41946 | 21616 ft | 291 kts | 338° |
| 2026-05-05 19:51 | 58.91178 | 11.41310 | 21304 ft | 289 kts | 338° |
| 2026-05-05 19:52 | 58.93156 | 11.40667 | 21007 ft | 287 kts | 338° |
| 2026-05-05 19:52 | 58.95116 | 11.40031 | 20705 ft | 285 kts | 338° |
| 2026-05-05 19:52 | 58.97069 | 11.39405 | 20404 ft | 284 kts | 338° |
| 2026-05-05 19:52 | 58.99011 | 11.38789 | 20102 ft | 282 kts | 338° |
| 2026-05-05 19:53 | 59.00940 | 11.38176 | 19825 ft | 280 kts | 338° |
| 2026-05-05 19:53 | 59.02853 | 11.37564 | 19533 ft | 279 kts | 337° |
| 2026-05-05 19:53 | 59.04761 | 11.36946 | 19245 ft | 277 kts | 337° |
| 2026-05-05 19:53 | 59.06663 | 11.36330 | 18965 ft | 275 kts | 337° |
| 2026-05-05 19:54 | 59.08548 | 11.35722 | 18669 ft | 274 kts | 337° |
| 2026-05-05 19:54 | 59.10425 | 11.35117 | 18367 ft | 272 kts | 337° |
| 2026-05-05 19:54 | 59.12243 | 11.34449 | 18159 ft | 267 kts | 334° |
| 2026-05-05 19:54 | 59.14032 | 11.33661 | 17864 ft | 262 kts | 333° |
| 2026-05-05 19:55 | 59.15824 | 11.32814 | 17547 ft | 260 kts | 333° |
| 2026-05-05 19:55 | 59.17558 | 11.31981 | 17224 ft | 259 kts | 333° |
| 2026-05-05 19:55 | 59.19353 | 11.31361 | 16911 ft | 265 kts | 341° |
| 2026-05-05 19:55 | 59.21188 | 11.30958 | 16594 ft | 264 kts | 341° |
| 2026-05-05 19:56 | 59.23011 | 11.30570 | 16274 ft | 263 kts | 342° |
| 2026-05-05 19:56 | 59.24830 | 11.30193 | 15971 ft | 262 kts | 343° |
| 2026-05-05 19:56 | 59.26638 | 11.29820 | 15675 ft | 260 kts | 343° |
| 2026-05-05 19:56 | 59.28435 | 11.29451 | 15379 ft | 259 kts | 343° |
| 2026-05-05 19:57 | 59.30223 | 11.29081 | 15096 ft | 258 kts | 344° |
| 2026-05-05 19:57 | 59.31404 | 11.28836 | 14910 ft | 257 kts | 344° |
| 2026-05-05 19:57 | 59.33774 | 11.28344 | 14525 ft | 255 kts | 345° |
| 2026-05-05 19:57 | 59.35541 | 11.27980 | 14255 ft | 254 kts | 345° |
| 2026-05-05 19:58 | 59.37297 | 11.27619 | 13990 ft | 253 kts | 346° |
| 2026-05-05 19:58 | 59.39041 | 11.27256 | 13713 ft | 251 kts | 346° |
| 2026-05-05 19:58 | 59.40775 | 11.26894 | 13430 ft | 250 kts | 347° |
| 2026-05-05 19:58 | 59.42504 | 11.26533 | 13086 ft | 249 kts | 347° |
| 2026-05-05 19:59 | 59.44204 | 11.26177 | 12775 ft | 248 kts | 347° |
| 2026-05-05 19:59 | 59.45919 | 11.25813 | 12455 ft | 248 kts | 347° |
| 2026-05-05 19:59 | 59.47629 | 11.25422 | 12146 ft | 247 kts | 347° |
| 2026-05-05 19:59 | 59.49330 | 11.25016 | 11842 ft | 246 kts | 347° |
| 2026-05-05 20:00 | 59.51025 | 11.24606 | 11541 ft | 245 kts | 347° |
| 2026-05-05 20:00 | 59.52716 | 11.24191 | 11239 ft | 244 kts | 347° |
| 2026-05-05 20:00 | 59.54399 | 11.23777 | 10933 ft | 244 kts | 348° |
| 2026-05-05 20:00 | 59.56081 | 11.23367 | 10638 ft | 243 kts | 348° |
| 2026-05-05 20:01 | 59.57755 | 11.22965 | 10344 ft | 243 kts | 348° |
| 2026-05-05 20:01 | 59.59437 | 11.22564 | 10055 ft | 242 kts | 349° |
| 2026-05-05 20:01 | 59.61126 | 11.22707 | 9750 ft | 247 kts | 11° |
| 2026-05-05 20:01 | 59.62682 | 11.24129 | 9447 ft | 253 kts | 34° |
| 2026-05-05 20:02 | 59.63873 | 11.26693 | 9122 ft | 257 kts | 58° |
| 2026-05-05 20:02 | 59.64560 | 11.29972 | 8800 ft | 258 kts | 69° |
| 2026-05-05 20:02 | 59.65159 | 11.33321 | 8502 ft | 257 kts | 69° |
| 2026-05-05 20:02 | 59.65754 | 11.36649 | 8206 ft | 256 kts | 69° |
| 2026-05-05 20:03 | 59.66385 | 11.39922 | 7928 ft | 253 kts | 62° |
| 2026-05-05 20:03 | 59.67303 | 11.42854 | 7642 ft | 249 kts | 49° |
| 2026-05-05 20:03 | 59.68415 | 11.45467 | 7369 ft | 247 kts | 47° |
| 2026-05-05 20:03 | 59.69519 | 11.48064 | 7087 ft | 246 kts | 48° |
| 2026-05-05 20:04 | 59.70246 | 11.49781 | 6910 ft | 245 kts | 48° |
| 2026-05-05 20:04 | 59.71335 | 11.52358 | 6631 ft | 243 kts | 48° |
| 2026-05-05 20:04 | 59.72417 | 11.54918 | 6348 ft | 242 kts | 48° |
| 2026-05-05 20:04 | 59.73616 | 11.57221 | 6051 ft | 238 kts | 35° |
| 2026-05-05 20:05 | 59.75008 | 11.58972 | 5741 ft | 236 kts | 28° |
| 2026-05-05 20:05 | 59.76420 | 11.60628 | 5436 ft | 235 kts | 28° |
| 2026-05-05 20:05 | 59.77819 | 11.62280 | 5120 ft | 233 kts | 27° |
| 2026-05-05 20:05 | 59.79325 | 11.63341 | 5028 ft | 229 kts | 5° |
| 2026-05-05 20:06 | 59.80904 | 11.63272 | 4924 ft | 226 kts | 345° |
| 2026-05-05 20:06 | 59.82339 | 11.62109 | 4595 ft | 222 kts | 324° |
| 2026-05-05 20:06 | 59.83442 | 11.60003 | 4241 ft | 220 kts | 303° |
| 2026-05-05 20:06 | 59.84103 | 11.57275 | 3915 ft | 219 kts | 289° |
| 2026-05-05 20:07 | 59.84625 | 11.54436 | 3602 ft | 218 kts | 290° |
| 2026-05-05 20:07 | 59.85150 | 11.51614 | 3294 ft | 217 kts | 290° |
| 2026-05-05 20:07 | 59.85664 | 11.48856 | 3061 ft | 214 kts | 290° |
| 2026-05-05 20:07 | 59.86184 | 11.46070 | 3034 ft | 216 kts | 290° |
| 2026-05-05 20:08 | 59.86714 | 11.43223 | 3032 ft | 216 kts | 290° |
| 2026-05-05 20:08 | 59.87228 | 11.40455 | 3035 ft | 217 kts | 290° |
| 2026-05-05 20:08 | 59.87748 | 11.37651 | 3034 ft | 216 kts | 290° |
| 2026-05-05 20:08 | 59.88269 | 11.34838 | 3035 ft | 216 kts | 290° |
| 2026-05-05 20:09 | 59.88789 | 11.32030 | 3036 ft | 216 kts | 290° |
| 2026-05-05 20:09 | 59.89307 | 11.29223 | 3036 ft | 216 kts | 290° |
| 2026-05-05 20:09 | 59.89821 | 11.26412 | 3031 ft | 216 kts | 290° |
| 2026-05-05 20:09 | 59.90337 | 11.23588 | 3034 ft | 218 kts | 291° |
| 2026-05-05 20:10 | 59.90857 | 11.20755 | 3033 ft | 218 kts | 291° |
| 2026-05-05 20:10 | 59.91379 | 11.17908 | 3035 ft | 218 kts | 290° |
| 2026-05-05 20:10 | 59.91897 | 11.15066 | 3034 ft | 218 kts | 290° |
| 2026-05-05 20:10 | 59.92475 | 11.12266 | 3034 ft | 218 kts | 298° |
| 2026-05-05 20:11 | 59.93316 | 11.09753 | 3038 ft | 218 kts | 310° |
| 2026-05-05 20:11 | 59.94335 | 11.07514 | 3036 ft | 218 kts | 312° |
| 2026-05-05 20:11 | 59.95356 | 11.05278 | 3035 ft | 218 kts | 312° |
| 2026-05-05 20:11 | 59.96374 | 11.03038 | 3035 ft | 218 kts | 312° |
| 2026-05-05 20:12 | 59.97393 | 11.00791 | 3035 ft | 218 kts | 312° |
| 2026-05-05 20:12 | 59.98426 | 10.98572 | 3032 ft | 218 kts | 319° |
| 2026-05-05 20:12 | 59.99762 | 10.97234 | 3033 ft | 219 kts | 349° |
| 2026-05-05 20:12 | 60.01283 | 10.97475 | 3044 ft | 223 kts | 13° |
| 2026-05-05 20:13 | 60.02773 | 10.98338 | 3039 ft | 223 kts | 14° |
| 2026-05-05 20:13 | 60.04219 | 10.99188 | 3028 ft | 205 kts | 14° |
| 2026-05-05 20:13 | 60.05501 | 10.99928 | 3025 ft | 179 kts | 13° |
| 2026-05-05 20:13 | 60.06607 | 11.00561 | 3056 ft | 157 kts | 13° |
| 2026-05-05 20:14 | 60.07622 | 11.01140 | 3032 ft | 148 kts | 12° |
| 2026-05-05 20:14 | 60.08610 | 11.01702 | 2810 ft | 144 kts | 12° |
| 2026-05-05 20:14 | 60.09553 | 11.02242 | 2631 ft | 138 kts | 12° |
| 2026-05-05 20:14 | 60.10473 | 11.02767 | 2431 ft | 136 kts | 12° |
| 2026-05-05 20:15 | 60.11383 | 11.03288 | 2234 ft | 136 kts | 12° |
| 2026-05-05 20:15 | 60.12289 | 11.03807 | 2042 ft | 135 kts | 12° |
| 2026-05-05 20:15 | 60.13195 | 11.04326 | 1856 ft | 135 kts | 12° |
| 2026-05-05 20:15 | 60.14103 | 11.04847 | 1664 ft | 136 kts | 12° |
| 2026-05-05 20:16 | 60.15010 | 11.05368 | 1446 ft | 136 kts | 12° |
| 2026-05-05 20:16 | 60.15922 | 11.05900 | 1256 ft | 137 kts | 14° |
| 2026-05-05 20:16 | 60.16836 | 11.06439 | 1062 ft | 137 kts | 14° |
| 2026-05-05 20:16 | 60.17757 | 11.06957 | 876 ft | 137 kts | 13° |
| 2026-05-05 20:17 | 60.18675 | 11.07476 | 689 ft | 137 kts | 15° |
| 2026-05-05 20:17 | 60.19455 | 11.07925 | 670 ft | 79 kts | 16° |
| 2026-05-05 20:17 | 60.19753 | 11.08096 | 673 ft | 35 kts | 16° |
| 2026-05-05 20:17 | 60.19922 | 11.08201 | 671 ft | 19 kts | 28° |
| 2026-05-05 20:18 | 60.19928 | 11.08339 | 672 ft | 9 kts | 136° |
| 2026-05-05 20:18 | 60.19895 | 11.08438 | 673 ft | 0 kts | 107° |
| 2026-05-05 20:19 | 60.19887 | 11.08492 | 673 ft | 10 kts | 107° |
| 2026-05-05 20:20 | 60.19862 | 11.08666 | 678 ft | 16 kts | 105° |
| 2026-05-05 20:20 | 60.19832 | 11.08873 | 676 ft | 10 kts | 106° |
| 2026-05-05 20:20 | 60.19798 | 11.09030 | 678 ft | 13 kts | 139° |
| 2026-05-05 20:20 | 60.19740 | 11.09065 | 678 ft | 10 kts | 144° |
| 2026-05-05 20:21 | 60.19707 | 11.09222 | 682 ft | 14 kts | 106° |
| 2026-05-05 20:21 | 60.19685 | 11.09382 | 681 ft | 0 kts | 106° |
| 2026-05-05 20:21 | 60.19672 | 11.09411 | 679 ft | 5 kts | 147° |
| 2026-05-05 20:21 | 60.19620 | 11.09454 | 681 ft | 10 kts | 158° |
| 2026-05-05 20:22 | 60.19573 | 11.09432 | 681 ft | 6 kts | 198° |
| 2026-05-05 20:22 | 60.19554 | 11.09420 | 681 ft | 0 kts | 197° |
| 2026-05-05 20:22 | 60.19551 | 11.09418 | 681 ft | 0 kts | 197° |